sensor_id;sensor_type;location;lat;lon;timestamp;pressure;altitude;pressure_sealevel;temperature;humidity
41898;BME280;27576;53.366;-1.498;2023-04-24T00:00:04;99217.31;;;6.83;100.00
41898;BME280;27576;53.366;-1.498;2023-04-24T00:02:40;99262.94;;;6.98;100.00
41898;BME280;27576;53.366;-1.498;2023-04-24T00:05:07;99278.44;;;7.03;100.00
41898;BME280;27576;53.366;-1.498;2023-04-24T00:07:33;99261.13;;;6.86;100.00
41898;BME280;27576;53.366;-1.498;2023-04-24T00:09:58;99298.97;;;6.94;100.00
41898;BME280;27576;53.366;-1.498;2023-04-24T00:12:25;99229.03;;;6.52;100.00
41898;BME280;27576;53.366;-1.498;2023-04-24T00:14:51;99289.38;;;6.77;100.00
41898;BME280;27576;53.366;-1.498;2023-04-24T00:17:16;99298.84;;;6.83;100.00
41898;BME280;27576;53.366;-1.498;2023-04-24T00:19:45;99284.22;;;6.77;100.00
41898;BME280;27576;53.366;-1.498;2023-04-24T00:22:11;99303.16;;;6.82;100.00
41898;BME280;27576;53.366;-1.498;2023-04-24T00:24:38;99305.66;;;6.75;100.00
41898;BME280;27576;53.366;-1.498;2023-04-24T00:27:04;99291.91;;;6.74;100.00
41898;BME280;27576;53.366;-1.498;2023-04-24T00:29:30;99307.41;;;6.79;100.00
41898;BME280;27576;53.366;-1.498;2023-04-24T00:31:55;99282.31;;;6.58;100.00
41898;BME280;27576;53.366;-1.498;2023-04-24T00:34:21;99249.47;;;6.35;100.00
41898;BME280;27576;53.366;-1.498;2023-04-24T00:36:46;99286.59;;;6.57;100.00
41898;BME280;27576;53.366;-1.498;2023-04-24T00:39:14;99308.19;;;6.72;100.00
41898;BME280;27576;53.366;-1.498;2023-04-24T00:41:39;99206.31;;;6.10;100.00
41898;BME280;27576;53.366;-1.498;2023-04-24T00:44:05;99305.47;;;6.56;100.00
41898;BME280;27576;53.366;-1.498;2023-04-24T00:46:31;99285.63;;;6.48;100.00
41898;BME280;27576;53.366;-1.498;2023-04-24T00:48:56;99311.47;;;6.60;100.00
41898;BME280;27576;53.366;-1.498;2023-04-24T00:51:23;99282.06;;;6.36;100.00
41898;BME280;27576;53.366;-1.498;2023-04-24T00:53:49;99313.97;;;6.52;100.00
41898;BME280;27576;53.366;-1.498;2023-04-24T00:56:16;99291.44;;;6.30;100.00
41898;BME280;27576;53.366;-1.498;2023-04-24T00:58:42;99271.53;;;6.15;100.00
41898;BME280;27576;53.366;-1.498;2023-04-24T01:01:09;99289.63;;;6.21;100.00
41898;BME280;27576;53.366;-1.498;2023-04-24T01:03:35;99300.81;;;6.26;100.00
41898;BME280;27576;53.366;-1.498;2023-04-24T01:06:02;99292.09;;;6.17;100.00
41898;BME280;27576;53.366;-1.498;2023-04-24T01:08:30;99299.84;;;6.18;100.00
41898;BME280;27576;53.366;-1.498;2023-04-24T01:10:56;99314.44;;;6.18;100.00
41898;BME280;27576;53.366;-1.498;2023-04-24T01:13:22;99336.84;;;6.28;100.00
41898;BME280;27576;53.366;-1.498;2023-04-24T01:15:48;99337.69;;;6.25;100.00
41898;BME280;27576;53.366;-1.498;2023-04-24T01:18:14;99307.31;;;6.00;100.00
41898;BME280;27576;53.366;-1.498;2023-04-24T01:20:41;99347.03;;;6.19;100.00
41898;BME280;27576;53.366;-1.498;2023-04-24T01:23:09;99304.69;;;5.97;100.00
41898;BME280;27576;53.366;-1.498;2023-04-24T01:25:34;99335.81;;;6.13;100.00
41898;BME280;27576;53.366;-1.498;2023-04-24T01:28:00;99337.50;;;6.13;100.00
41898;BME280;27576;53.366;-1.498;2023-04-24T01:30:30;99338.34;;;6.10;100.00
41898;BME280;27576;53.366;-1.498;2023-04-24T01:32:56;99319.22;;;5.93;100.00
41898;BME280;27576;53.366;-1.498;2023-04-24T01:35:22;99362.41;;;6.14;100.00
41898;BME280;27576;53.366;-1.498;2023-04-24T01:37:47;99328.72;;;5.97;100.00
41898;BME280;27576;53.366;-1.498;2023-04-24T01:40:13;99331.22;;;5.93;100.00
41898;BME280;27576;53.366;-1.498;2023-04-24T01:42:41;99360.56;;;6.07;100.00
41898;BME280;27576;53.366;-1.498;2023-04-24T01:45:10;99358.63;;;5.92;100.00
41898;BME280;27576;53.366;-1.498;2023-04-24T01:47:36;99349.06;;;5.83;100.00
41898;BME280;27576;53.366;-1.498;2023-04-24T01:50:03;99373.28;;;5.96;100.00
41898;BME280;27576;53.366;-1.498;2023-04-24T01:52:29;99326.66;;;5.75;100.00
41898;BME280;27576;53.366;-1.498;2023-04-24T01:54:56;99359.53;;;5.94;100.00
41898;BME280;27576;53.366;-1.498;2023-04-24T01:57:24;99329.13;;;5.67;100.00
41898;BME280;27576;53.366;-1.498;2023-04-24T01:59:50;99328.13;;;5.59;100.00
41898;BME280;27576;53.366;-1.498;2023-04-24T02:02:16;99334.09;;;5.56;100.00
41898;BME280;27576;53.366;-1.498;2023-04-24T02:04:41;99323.75;;;5.52;100.00
41898;BME280;27576;53.366;-1.498;2023-04-24T02:07:07;99338.50;;;5.65;100.00
41898;BME280;27576;53.366;-1.498;2023-04-24T02:09:33;99322.03;;;5.51;100.00
41898;BME280;27576;53.366;-1.498;2023-04-24T02:11:58;99246.84;;;5.09;100.00
41898;BME280;27576;53.366;-1.498;2023-04-24T02:14:23;99329.75;;;5.54;100.00
41898;BME280;27576;53.366;-1.498;2023-04-24T02:16:49;99315.06;;;5.45;100.00
41898;BME280;27576;53.366;-1.498;2023-04-24T02:19:15;99334.16;;;5.61;100.00
41898;BME280;27576;53.366;-1.498;2023-04-24T02:21:41;99246.81;;;5.06;100.00
41898;BME280;27576;53.366;-1.498;2023-04-24T02:24:06;99341.91;;;5.65;100.00
41898;BME280;27576;53.366;-1.498;2023-04-24T02:26:31;99322.88;;;5.51;100.00
41898;BME280;27576;53.366;-1.498;2023-04-24T02:28:59;99341.00;;;5.59;100.00
41898;BME280;27576;53.366;-1.498;2023-04-24T02:31:25;99357.22;;;5.58;100.00
41898;BME280;27576;53.366;-1.498;2023-04-24T02:33:50;99346.09;;;5.57;100.00
41898;BME280;27576;53.366;-1.498;2023-04-24T02:36:16;99367.69;;;5.69;100.00
41898;BME280;27576;53.366;-1.498;2023-04-24T02:38:41;99375.44;;;5.70;100.00
41898;BME280;27576;53.366;-1.498;2023-04-24T02:41:07;99369.38;;;5.66;100.00
41898;BME280;27576;53.366;-1.498;2023-04-24T02:43:32;99348.59;;;5.53;100.00
41898;BME280;27576;53.366;-1.498;2023-04-24T02:46:01;99365.00;;;5.61;100.00
41898;BME280;27576;53.366;-1.498;2023-04-24T02:48:26;99361.38;;;5.50;100.00
41898;BME280;27576;53.366;-1.498;2023-04-24T02:50:52;99390.75;;;5.64;100.00
41898;BME280;27576;53.366;-1.498;2023-04-24T02:53:18;99353.50;;;5.39;100.00
41898;BME280;27576;53.366;-1.498;2023-04-24T02:55:43;99340.38;;;5.22;100.00
41898;BME280;27576;53.366;-1.498;2023-04-24T02:58:08;99291.09;;;4.95;100.00
41898;BME280;27576;53.366;-1.498;2023-04-24T03:00:35;99394.09;;;5.60;100.00
41898;BME280;27576;53.366;-1.498;2023-04-24T03:03:00;99360.38;;;5.41;100.00
41898;BME280;27576;53.366;-1.498;2023-04-24T03:05:26;99404.38;;;5.60;100.00
41898;BME280;27576;53.366;-1.498;2023-04-24T03:07:52;99397.47;;;5.56;100.00
41898;BME280;27576;53.366;-1.498;2023-04-24T03:10:18;99388.63;;;5.40;100.00
41898;BME280;27576;53.366;-1.498;2023-04-24T03:12:43;99407.66;;;5.51;100.00
41898;BME280;27576;53.366;-1.498;2023-04-24T03:15:09;99403.41;;;5.52;100.00
41898;BME280;27576;53.366;-1.498;2023-04-24T03:17:34;99146.53;;;3.96;100.00
41898;BME280;27576;53.366;-1.498;2023-04-24T03:20:01;99387.66;;;5.33;100.00
41898;BME280;27576;53.366;-1.498;2023-04-24T03:22:26;99406.81;;;5.51;100.00
41898;BME280;27576;53.366;-1.498;2023-04-24T03:24:52;99369.41;;;5.18;100.00
41898;BME280;27576;53.366;-1.498;2023-04-24T03:27:17;99416.25;;;5.52;100.00
41898;BME280;27576;53.366;-1.498;2023-04-24T03:29:43;99337.56;;;5.08;100.00
41898;BME280;27576;53.366;-1.498;2023-04-24T03:32:08;99388.50;;;5.34;100.00
41898;BME280;27576;53.366;-1.498;2023-04-24T03:34:33;99384.22;;;5.31;100.00
41898;BME280;27576;53.366;-1.498;2023-04-24T03:37:00;99408.41;;;5.44;100.00
41898;BME280;27576;53.366;-1.498;2023-04-24T03:39:25;99414.41;;;5.46;100.00
41898;BME280;27576;53.366;-1.498;2023-04-24T03:41:50;99366.09;;;5.24;100.00
41898;BME280;27576;53.366;-1.498;2023-04-24T03:44:16;99339.28;;;5.09;100.00
41898;BME280;27576;53.366;-1.498;2023-04-24T03:46:41;99434.25;;;5.53;100.00
41898;BME280;27576;53.366;-1.498;2023-04-24T03:49:07;99435.94;;;5.53;100.00
41898;BME280;27576;53.366;-1.498;2023-04-24T03:51:32;99393.66;;;5.34;100.00
41898;BME280;27576;53.366;-1.498;2023-04-24T03:53:57;99327.81;;;4.90;100.00
41898;BME280;27576;53.366;-1.498;2023-04-24T03:56:23;99373.75;;;5.21;100.00
41898;BME280;27576;53.366;-1.498;2023-04-24T03:58:48;99385.78;;;5.23;100.00
41898;BME280;27576;53.366;-1.498;2023-04-24T04:01:13;99396.94;;;5.25;100.00
41898;BME280;27576;53.366;-1.498;2023-04-24T04:03:41;99393.50;;;5.26;100.00
41898;BME280;27576;53.366;-1.498;2023-04-24T04:06:06;99389.09;;;5.17;100.00
41898;BME280;27576;53.366;-1.498;2023-04-24T04:08:31;99399.34;;;5.17;100.00
41898;BME280;27576;53.366;-1.498;2023-04-24T04:10:57;99432.97;;;5.30;100.00
41898;BME280;27576;53.366;-1.498;2023-04-24T04:13:22;99412.06;;;5.10;100.00
41898;BME280;27576;53.366;-1.498;2023-04-24T04:15:47;99410.25;;;5.06;100.00
41898;BME280;27576;53.366;-1.498;2023-04-24T04:18:13;99415.41;;;5.06;100.00
41898;BME280;27576;53.366;-1.498;2023-04-24T04:20:38;99440.63;;;5.27;100.00
41898;BME280;27576;53.366;-1.498;2023-04-24T04:23:04;99421.50;;;5.11;100.00
41898;BME280;27576;53.366;-1.498;2023-04-24T04:25:29;99440.50;;;5.21;100.00
41898;BME280;27576;53.366;-1.498;2023-04-24T04:27:55;99455.16;;;5.26;100.00
41898;BME280;27576;53.366;-1.498;2023-04-24T04:30:21;99418.75;;;5.02;100.00
41898;BME280;27576;53.366;-1.498;2023-04-24T04:32:46;99413.38;;;4.88;100.00
41898;BME280;27576;53.366;-1.498;2023-04-24T04:35:12;99428.91;;;4.96;100.00
41898;BME280;27576;53.366;-1.498;2023-04-24T04:37:37;99423.63;;;4.88;100.00
41898;BME280;27576;53.366;-1.498;2023-04-24T04:40:03;99436.56;;;4.92;100.00
41898;BME280;27576;53.366;-1.498;2023-04-24T04:42:32;99417.53;;;4.83;100.00
41898;BME280;27576;53.366;-1.498;2023-04-24T04:44:59;99435.72;;;4.93;100.00
41898;BME280;27576;53.366;-1.498;2023-04-24T04:47:25;99443.50;;;4.98;100.00
41898;BME280;27576;53.366;-1.498;2023-04-24T04:49:51;99459.13;;;5.09;100.00
41898;BME280;27576;53.366;-1.498;2023-04-24T04:52:17;99430.47;;;4.87;100.00
41898;BME280;27576;53.366;-1.498;2023-04-24T04:54:43;99451.19;;;4.97;100.00
41898;BME280;27576;53.366;-1.498;2023-04-24T04:57:08;99483.22;;;5.15;100.00
41898;BME280;27576;53.366;-1.498;2023-04-24T04:59:34;99451.09;;;4.93;100.00
41898;BME280;27576;53.366;-1.498;2023-04-24T05:01:59;99422.47;;;4.74;100.00
41898;BME280;27576;53.366;-1.498;2023-04-24T05:04:25;99457.94;;;4.91;100.00
41898;BME280;27576;53.366;-1.498;2023-04-24T05:06:51;99442.47;;;4.88;100.00
41898;BME280;27576;53.366;-1.498;2023-04-24T05:09:16;99444.09;;;4.85;100.00
41898;BME280;27576;53.366;-1.498;2023-04-24T05:11:42;99486.59;;;5.14;100.00
41898;BME280;27576;53.366;-1.498;2023-04-24T05:14:07;99464.00;;;4.97;100.00
41898;BME280;27576;53.366;-1.498;2023-04-24T05:16:32;99476.16;;;5.05;100.00
41898;BME280;27576;53.366;-1.498;2023-04-24T05:18:58;99465.81;;;5.02;100.00
41898;BME280;27576;53.366;-1.498;2023-04-24T05:21:23;99480.59;;;5.12;100.00
41898;BME280;27576;53.366;-1.498;2023-04-24T05:23:49;99450.38;;;4.99;100.00
41898;BME280;27576;53.366;-1.498;2023-04-24T05:26:14;99486.75;;;5.21;100.00
41898;BME280;27576;53.366;-1.498;2023-04-24T05:28:40;99513.75;;;5.46;100.00
41898;BME280;27576;53.366;-1.498;2023-04-24T05:31:06;99485.97;;;5.26;100.00
41898;BME280;27576;53.366;-1.498;2023-04-24T05:33:31;99471.47;;;5.27;100.00
41898;BME280;27576;53.366;-1.498;2023-04-24T05:35:57;99497.31;;;5.37;100.00
41898;BME280;27576;53.366;-1.498;2023-04-24T05:38:22;99501.72;;;5.43;100.00
41898;BME280;27576;53.366;-1.498;2023-04-24T05:40:48;99498.25;;;5.41;100.00
41898;BME280;27576;53.366;-1.498;2023-04-24T05:43:13;99488.81;;;5.40;100.00
41898;BME280;27576;53.366;-1.498;2023-04-24T05:45:39;99513.16;;;5.59;100.00
41898;BME280;27576;53.366;-1.498;2023-04-24T05:48:04;99532.16;;;5.69;100.00
41898;BME280;27576;53.366;-1.498;2023-04-24T05:50:30;99505.38;;;5.56;100.00
41898;BME280;27576;53.366;-1.498;2023-04-24T05:52:56;99515.81;;;5.65;100.00
41898;BME280;27576;53.366;-1.498;2023-04-24T05:55:26;99535.00;;;5.82;100.00
41898;BME280;27576;53.366;-1.498;2023-04-24T05:57:52;99523.69;;;5.73;100.00
41898;BME280;27576;53.366;-1.498;2023-04-24T06:00:17;99508.19;;;5.70;100.00
41898;BME280;27576;53.366;-1.498;2023-04-24T06:02:45;99512.66;;;5.78;100.00
41898;BME280;27576;53.366;-1.498;2023-04-24T06:05:11;99515.25;;;5.81;100.00
41898;BME280;27576;53.366;-1.498;2023-04-24T06:07:37;99515.19;;;5.77;100.00
41898;BME280;27576;53.366;-1.498;2023-04-24T06:10:02;99509.09;;;5.72;100.00
41898;BME280;27576;53.366;-1.498;2023-04-24T06:12:28;99517.88;;;5.84;100.00
41898;BME280;27576;53.366;-1.498;2023-04-24T06:14:53;99550.03;;;6.08;100.00
41898;BME280;27576;53.366;-1.498;2023-04-24T06:17:20;99556.91;;;6.09;100.00
41898;BME280;27576;53.366;-1.498;2023-04-24T06:19:46;99516.28;;;5.89;100.00
41898;BME280;27576;53.366;-1.498;2023-04-24T06:22:11;99555.25;;;6.11;100.00
41898;BME280;27576;53.366;-1.498;2023-04-24T06:24:37;99549.97;;;6.03;100.00
41898;BME280;27576;53.366;-1.498;2023-04-24T06:27:02;99524.81;;;5.88;100.00
41898;BME280;27576;53.366;-1.498;2023-04-24T06:29:29;99561.25;;;6.10;100.00
41898;BME280;27576;53.366;-1.498;2023-04-24T06:31:55;99562.91;;;6.08;100.00
41898;BME280;27576;53.366;-1.498;2023-04-24T06:34:20;99532.44;;;5.84;100.00
41898;BME280;27576;53.366;-1.498;2023-04-24T06:36:46;99533.25;;;5.80;100.00
41898;BME280;27576;53.366;-1.498;2023-04-24T06:39:12;99567.09;;;6.03;100.00
41898;BME280;27576;53.366;-1.498;2023-04-24T06:41:37;99540.47;;;5.99;100.00
41898;BME280;27576;53.366;-1.498;2023-04-24T06:44:03;99547.59;;;6.14;100.00
41898;BME280;27576;53.366;-1.498;2023-04-24T06:46:28;99522.66;;;6.11;100.00
41898;BME280;27576;53.366;-1.498;2023-04-24T06:48:56;99567.03;;;6.50;100.00
41898;BME280;27576;53.366;-1.498;2023-04-24T06:51:25;99574.22;;;6.71;100.00
41898;BME280;27576;53.366;-1.498;2023-04-24T06:53:52;99552.75;;;6.72;100.00
41898;BME280;27576;53.366;-1.498;2023-04-24T06:56:18;99571.00;;;6.85;100.00
41898;BME280;27576;53.366;-1.498;2023-04-24T06:58:44;99554.63;;;6.80;100.00
41898;BME280;27576;53.366;-1.498;2023-04-24T07:01:10;99583.28;;;7.06;99.38
41898;BME280;27576;53.366;-1.498;2023-04-24T07:03:36;99598.03;;;7.17;100.00
41898;BME280;27576;53.366;-1.498;2023-04-24T07:06:01;99574.06;;;7.21;100.00
41898;BME280;27576;53.366;-1.498;2023-04-24T07:08:28;99552.47;;;7.12;99.74
41898;BME280;27576;53.366;-1.498;2023-04-24T07:10:55;99557.63;;;7.12;98.50
41898;BME280;27576;53.366;-1.498;2023-04-24T07:13:21;99574.06;;;7.21;97.58
41898;BME280;27576;53.366;-1.498;2023-04-24T07:15:46;99584.34;;;7.21;96.73
41898;BME280;27576;53.366;-1.498;2023-04-24T07:18:14;99527.25;;;6.88;97.79
41898;BME280;27576;53.366;-1.498;2023-04-24T07:20:39;99554.16;;;7.09;96.33
41898;BME280;27576;53.366;-1.498;2023-04-24T07:23:04;99570.53;;;7.14;97.23
41898;BME280;27576;53.366;-1.498;2023-04-24T07:25:30;99588.84;;;7.35;96.42
41898;BME280;27576;53.366;-1.498;2023-04-24T07:27:56;99584.50;;;7.33;96.03
41898;BME280;27576;53.366;-1.498;2023-04-24T07:30:22;99543.13;;;7.21;94.57
41898;BME280;27576;53.366;-1.498;2023-04-24T07:32:47;99551.00;;;7.34;95.25
41898;BME280;27576;53.366;-1.498;2023-04-24T07:35:12;99599.50;;;7.66;94.97
41898;BME280;27576;53.366;-1.498;2023-04-24T07:37:38;99590.84;;;7.61;94.45
41898;BME280;27576;53.366;-1.498;2023-04-24T07:40:05;99571.81;;;7.50;95.26
41898;BME280;27576;53.366;-1.498;2023-04-24T07:42:30;99609.91;;;7.71;94.11
41898;BME280;27576;53.366;-1.498;2023-04-24T07:44:56;99613.38;;;7.74;92.42
41898;BME280;27576;53.366;-1.498;2023-04-24T07:47:21;99605.69;;;7.80;94.54
41898;BME280;27576;53.366;-1.498;2023-04-24T07:49:47;99597.97;;;7.82;94.17
41898;BME280;27576;53.366;-1.498;2023-04-24T07:52:12;99568.59;;;7.68;93.75
41898;BME280;27576;53.366;-1.498;2023-04-24T07:54:38;99563.53;;;7.75;93.15
41898;BME280;27576;53.366;-1.498;2023-04-24T07:57:03;99592.88;;;7.86;92.87
41898;BME280;27576;53.366;-1.498;2023-04-24T07:59:29;99558.41;;;7.81;92.63
41898;BME280;27576;53.366;-1.498;2023-04-24T08:01:54;99572.31;;;7.96;91.97
41898;BME280;27576;53.366;-1.498;2023-04-24T08:04:20;99595.78;;;8.19;91.86
41898;BME280;27576;53.366;-1.498;2023-04-24T08:06:47;99594.13;;;8.28;91.27
41898;BME280;27576;53.366;-1.498;2023-04-24T08:09:13;99570.94;;;8.33;90.62
41898;BME280;27576;53.366;-1.498;2023-04-24T08:11:38;99584.88;;;8.49;90.31
41898;BME280;27576;53.366;-1.498;2023-04-24T08:14:04;99566.75;;;8.44;86.03
41898;BME280;27576;53.366;-1.498;2023-04-24T08:16:29;99608.28;;;8.69;88.37
41898;BME280;27576;53.366;-1.498;2023-04-24T08:18:55;99579.69;;;8.49;87.39
41898;BME280;27576;53.366;-1.498;2023-04-24T08:21:20;99596.16;;;8.58;87.81
41898;BME280;27576;53.366;-1.498;2023-04-24T08:23:46;99609.97;;;8.67;87.51
41898;BME280;27576;53.366;-1.498;2023-04-24T08:26:12;99611.69;;;8.66;86.70
41898;BME280;27576;53.366;-1.498;2023-04-24T08:28:38;99603.06;;;8.64;87.89
41898;BME280;27576;53.366;-1.498;2023-04-24T08:31:03;99582.34;;;8.56;86.79
41898;BME280;27576;53.366;-1.498;2023-04-24T08:33:29;99615.31;;;8.91;86.84
41898;BME280;27576;53.366;-1.498;2023-04-24T08:36:03;99619.81;;;9.21;86.27
41898;BME280;27576;53.366;-1.498;2023-04-24T08:38:29;99587.16;;;9.36;85.29
41898;BME280;27576;53.366;-1.498;2023-04-24T08:40:57;99588.94;;;9.52;85.10
41898;BME280;27576;53.366;-1.498;2023-04-24T08:43:23;99609.72;;;9.72;84.90
41898;BME280;27576;53.366;-1.498;2023-04-24T08:45:50;99614.84;;;9.70;82.96
41898;BME280;27576;53.366;-1.498;2023-04-24T08:48:16;99616.53;;;9.53;82.04
41898;BME280;27576;53.366;-1.498;2023-04-24T08:50:42;99594.84;;;9.25;82.73
41898;BME280;27576;53.366;-1.498;2023-04-24T08:53:09;99627.69;;;9.40;83.37
41898;BME280;27576;53.366;-1.498;2023-04-24T08:55:35;99639.72;;;9.36;82.86
41898;BME280;27576;53.366;-1.498;2023-04-24T08:58:02;99637.91;;;9.23;83.32
41898;BME280;27576;53.366;-1.498;2023-04-24T09:00:28;99635.25;;;9.09;83.49
41898;BME280;27576;53.366;-1.498;2023-04-24T09:02:54;99617.88;;;8.88;82.46
41898;BME280;27576;53.366;-1.498;2023-04-24T09:05:21;99611.84;;;8.88;84.75
41898;BME280;27576;53.366;-1.498;2023-04-24T09:07:51;99630.13;;;9.12;84.22
41898;BME280;27576;53.366;-1.498;2023-04-24T09:10:18;99637.97;;;9.29;84.21
41898;BME280;27576;53.366;-1.498;2023-04-24T09:12:44;99631.00;;;9.23;84.07
41898;BME280;27576;53.366;-1.498;2023-04-24T09:15:10;99612.91;;;9.17;83.43
41898;BME280;27576;53.366;-1.498;2023-04-24T09:17:36;99624.09;;;9.13;80.50
41898;BME280;27576;53.366;-1.498;2023-04-24T09:20:02;99624.88;;;9.06;82.32
41898;BME280;27576;53.366;-1.498;2023-04-24T09:22:30;99611.94;;;8.97;82.81
41898;BME280;27576;53.366;-1.498;2023-04-24T09:25:01;99618.75;;;8.92;82.91
41898;BME280;27576;53.366;-1.498;2023-04-24T09:27:28;99591.06;;;8.69;83.21
41898;BME280;27576;53.366;-1.498;2023-04-24T09:29:58;99639.50;;;8.96;83.78
41898;BME280;27576;53.366;-1.498;2023-04-24T09:32:24;99648.94;;;8.94;83.83
41898;BME280;27576;53.366;-1.498;2023-04-24T09:35:11;99648.88;;;8.88;81.91
41898;BME280;27576;53.366;-1.498;2023-04-24T09:37:38;99646.25;;;8.82;83.87
41898;BME280;27576;53.366;-1.498;2023-04-24T09:40:17;99629.03;;;8.81;82.52
41898;BME280;27576;53.366;-1.498;2023-04-24T09:42:51;99657.56;;;8.98;82.73
41898;BME280;27576;53.366;-1.498;2023-04-24T09:45:17;99638.56;;;8.90;83.07
41898;BME280;27576;53.366;-1.498;2023-04-24T09:47:42;99647.28;;;9.07;83.00
41898;BME280;27576;53.366;-1.498;2023-04-24T09:50:12;99641.34;;;9.22;85.51
41898;BME280;27576;53.366;-1.498;2023-04-24T09:52:43;99666.47;;;9.46;82.17
41898;BME280;27576;53.366;-1.498;2023-04-24T09:55:20;99676.06;;;9.59;81.40
41898;BME280;27576;53.366;-1.498;2023-04-24T09:57:49;99650.19;;;9.65;80.49
41898;BME280;27576;53.366;-1.498;2023-04-24T10:00:28;99639.03;;;9.78;80.81
41898;BME280;27576;53.366;-1.498;2023-04-24T10:03:04;99642.59;;;10.16;80.35
41898;BME280;27576;53.366;-1.498;2023-04-24T10:05:35;99653.06;;;10.51;79.78
41898;BME280;27576;53.366;-1.498;2023-04-24T10:08:03;99670.34;;;10.67;78.03
41898;BME280;27576;53.366;-1.498;2023-04-24T10:10:30;99618.50;;;10.37;75.60
41898;BME280;27576;53.366;-1.498;2023-04-24T10:12:56;99673.75;;;10.57;75.94
41898;BME280;27576;53.366;-1.498;2023-04-24T10:15:22;99635.78;;;10.56;78.90
41898;BME280;27576;53.366;-1.498;2023-04-24T10:17:49;99675.50;;;10.76;75.06
41898;BME280;27576;53.366;-1.498;2023-04-24T10:20:22;99675.50;;;10.69;73.48
41898;BME280;27576;53.366;-1.498;2023-04-24T10:22:50;99668.59;;;10.57;76.91
41898;BME280;27576;53.366;-1.498;2023-04-24T10:25:20;99669.47;;;10.84;76.22
41898;BME280;27576;53.366;-1.498;2023-04-24T10:27:46;99676.34;;;11.15;75.60
41898;BME280;27576;53.366;-1.498;2023-04-24T10:30:13;99659.06;;;11.08;73.38
41898;BME280;27576;53.366;-1.498;2023-04-24T10:32:38;99646.13;;;10.99;73.70
41898;BME280;27576;53.366;-1.498;2023-04-24T10:35:06;99664.31;;;11.00;69.82
41898;BME280;27576;53.366;-1.498;2023-04-24T10:37:37;99688.41;;;11.39;69.13
41898;BME280;27576;53.366;-1.498;2023-04-24T10:40:04;99649.47;;;11.53;69.29
41898;BME280;27576;53.366;-1.498;2023-04-24T10:42:30;99648.53;;;11.85;66.82
41898;BME280;27576;53.366;-1.498;2023-04-24T10:44:56;99675.19;;;12.20;68.07
41898;BME280;27576;53.366;-1.498;2023-04-24T10:47:23;99670.00;;;12.16;66.64
41898;BME280;27576;53.366;-1.498;2023-04-24T10:49:50;99683.06;;;12.00;64.44
41898;BME280;27576;53.366;-1.498;2023-04-24T10:52:16;99672.78;;;11.71;67.02
41898;BME280;27576;53.366;-1.498;2023-04-24T10:54:44;99687.53;;;11.52;66.47
41898;BME280;27576;53.366;-1.498;2023-04-24T11:00:20;99684.16;;;11.12;66.75
41898;BME280;27576;53.366;-1.498;2023-04-24T11:02:47;99686.75;;;11.09;69.25
41898;BME280;27576;53.366;-1.498;2023-04-24T11:05:19;99685.84;;;11.33;71.07
41898;BME280;27576;53.366;-1.498;2023-04-24T11:08:10;99690.16;;;11.42;68.73
41898;BME280;27576;53.366;-1.498;2023-04-24T11:10:39;99673.75;;;11.26;68.61
41898;BME280;27576;53.366;-1.498;2023-04-24T11:13:05;99667.72;;;11.10;69.37
41898;BME280;27576;53.366;-1.498;2023-04-24T11:15:30;99675.50;;;11.07;69.05
41898;BME280;27576;53.366;-1.498;2023-04-24T11:17:56;99677.25;;;10.88;70.15
41898;BME280;27576;53.366;-1.498;2023-04-24T11:20:23;99691.06;;;10.82;69.78
41898;BME280;27576;53.366;-1.498;2023-04-24T11:22:53;99695.38;;;10.67;68.42
41898;BME280;27576;53.366;-1.498;2023-04-24T11:25:21;99673.72;;;10.29;67.61
41898;BME280;27576;53.366;-1.498;2023-04-24T11:27:47;99698.78;;;10.32;69.82
41898;BME280;27576;53.366;-1.498;2023-04-24T11:30:17;99699.59;;;10.23;71.53
41898;BME280;27576;53.366;-1.498;2023-04-24T11:32:47;99681.44;;;10.13;72.93
41898;BME280;27576;53.366;-1.498;2023-04-24T11:35:17;99703.94;;;10.27;71.46
41898;BME280;27576;53.366;-1.498;2023-04-24T11:37:44;99708.28;;;10.35;71.86
41898;BME280;27576;53.366;-1.498;2023-04-24T11:40:13;99704.84;;;10.34;71.23
41898;BME280;27576;53.366;-1.498;2023-04-24T11:42:45;99715.22;;;10.60;71.00
41898;BME280;27576;53.366;-1.498;2023-04-24T11:45:15;99717.84;;;10.66;70.62
41898;BME280;27576;53.366;-1.498;2023-04-24T11:47:42;99726.47;;;10.64;71.02
41898;BME280;27576;53.366;-1.498;2023-04-24T11:50:12;99698.78;;;10.35;71.15
41898;BME280;27576;53.366;-1.498;2023-04-24T11:52:40;99731.59;;;10.39;72.93
41898;BME280;27576;53.366;-1.498;2023-04-24T11:55:08;99699.53;;;10.05;71.10
41898;BME280;27576;53.366;-1.498;2023-04-24T11:57:34;99725.41;;;10.05;72.07
41898;BME280;27576;53.366;-1.498;2023-04-24T12:00:02;99732.28;;;10.00;72.01
41898;BME280;27576;53.366;-1.498;2023-04-24T12:02:29;99744.34;;;9.98;73.04
41898;BME280;27576;53.366;-1.498;2023-04-24T12:04:55;99727.00;;;9.72;70.78
41898;BME280;27576;53.366;-1.498;2023-04-24T12:07:22;99744.28;;;9.79;70.67
41898;BME280;27576;53.366;-1.498;2023-04-24T12:09:50;99757.19;;;9.72;70.92
41898;BME280;27576;53.366;-1.498;2023-04-24T12:12:19;99729.47;;;9.54;71.20
41898;BME280;27576;53.366;-1.498;2023-04-24T12:14:48;99757.16;;;9.67;69.87
41898;BME280;27576;53.366;-1.498;2023-04-24T12:17:15;99759.72;;;9.70;69.62
41898;BME280;27576;53.366;-1.498;2023-04-24T12:19:48;99743.34;;;9.64;68.90
41898;BME280;27576;53.366;-1.498;2023-04-24T12:22:13;99751.16;;;9.77;69.17
41898;BME280;27576;53.366;-1.498;2023-04-24T12:24:59;99756.47;;;9.99;68.68
41898;BME280;27576;53.366;-1.498;2023-04-24T12:27:26;99752.22;;;10.19;68.70
41898;BME280;27576;53.366;-1.498;2023-04-24T12:29:53;99733.28;;;10.29;66.70
41898;BME280;27576;53.366;-1.498;2023-04-24T12:32:20;99762.75;;;10.70;68.34
41898;BME280;27576;53.366;-1.498;2023-04-24T12:34:45;99753.28;;;10.86;66.97
41898;BME280;27576;53.366;-1.498;2023-04-24T12:37:11;99716.97;;;10.76;67.87
41898;BME280;27576;53.366;-1.498;2023-04-24T12:39:38;99736.88;;;10.91;68.66
41898;BME280;27576;53.366;-1.498;2023-04-24T12:42:03;99736.88;;;10.91;66.25
41898;BME280;27576;53.366;-1.498;2023-04-24T12:44:33;99738.59;;;10.83;64.46
41898;BME280;27576;53.366;-1.498;2023-04-24T12:47:00;99768.81;;;10.92;65.37
41898;BME280;27576;53.366;-1.498;2023-04-24T12:49:27;99774.88;;;10.86;66.29
41898;BME280;27576;53.366;-1.498;2023-04-24T12:51:53;99768.81;;;10.78;65.87